Time;durP1;ratioP1;P1;durP2;ratioP2;P2;SDS_P1;SDS_P2;PMS_P1;PMS_P2;Temp;Humidity;BMP_temperature;BMP_pressure;BME280_temperature;BME280_humidity;BME280_pressure;Samples;Min_cycle;Max_cycle;Signal;HPM_P1;HPM_P2
2021/06/25 00:01:39;;;;;;;17.88;16.33;;;;;;;29.27;52.19;100419.41;5013185;28;20072;-44
2021/06/25 00:04:04;;;;;;;23.17;15.77;;;;;;;29.24;52.31;100419.78;5012937;28;20100;-44
2021/06/25 00:06:30;;;;;;;19.42;16.58;;;;;;;29.21;52.33;100415.63;5012936;28;20056;-43
2021/06/25 00:08:56;;;;;;;19.13;15.50;;;;;;;29.16;52.24;100414.50;5011451;28;20045;-43
2021/06/25 00:11:22;;;;;;;17.15;15.43;;;;;;;29.14;52.24;100412.00;5012873;28;20042;-43
2021/06/25 00:13:47;;;;;;;19.33;16.02;;;;;;;29.14;52.18;100411.19;5012847;28;20045;-44
2021/06/25 00:16:13;;;;;;;20.83;15.68;;;;;;;29.12;52.21;100416.75;5012835;28;20038;-43
2021/06/25 00:18:39;;;;;;;18.15;15.95;;;;;;;29.09;52.11;100416.31;5013307;28;20050;-43
2021/06/25 00:21:04;;;;;;;18.00;15.85;;;;;;;29.08;51.86;100412.78;5016281;28;20112;-45
2021/06/25 00:23:30;;;;;;;17.38;15.43;;;;;;;29.06;52.21;100414.00;5016155;28;20415;-44
2021/06/25 00:25:56;;;;;;;17.65;16.05;;;;;;;29.03;51.99;100403.59;5016456;28;20403;-44
2021/06/25 00:28:21;;;;;;;20.35;16.02;;;;;;;29.00;52.19;100399.44;5016423;28;20462;-43
2021/06/25 00:30:47;;;;;;;18.00;16.27;;;;;;;28.98;51.86;100400.66;5030064;28;20482;-43
2021/06/25 00:33:13;;;;;;;17.83;16.42;;;;;;;28.94;51.97;100390.28;5035874;28;20058;-43
2021/06/25 00:35:38;;;;;;;18.05;16.17;;;;;;;28.91;52.04;100390.66;5035775;28;20083;-44
2021/06/25 00:38:05;;;;;;;18.15;16.60;;;;;;;28.88;51.99;100392.88;5036009;28;20045;-43
2021/06/25 00:40:31;;;;;;;17.98;16.17;;;;;;;28.88;51.86;100393.72;5034436;28;20076;-44
2021/06/25 00:42:57;;;;;;;19.17;17.23;;;;;;;28.88;51.82;100391.03;5035832;28;20033;-43
2021/06/25 00:45:23;;;;;;;19.52;16.55;;;;;;;28.86;51.90;100393.06;5034718;28;20099;-43
2021/06/25 00:47:49;;;;;;;17.65;15.93;;;;;;;28.86;51.87;100382.31;5035846;28;20123;-43
2021/06/25 00:50:24;;;;;;;17.02;15.38;;;;;;;28.82;51.91;100381.03;5035727;28;20099;-43
2021/06/25 00:52:53;;;;;;;17.63;16.00;;;;;;;28.82;51.93;100375.66;5035514;28;20457;-44
2021/06/25 00:55:20;;;;;;;17.92;16.20;;;;;;;28.79;52.01;100370.66;5035686;28;20103;-43
2021/06/25 00:57:45;;;;;;;16.80;14.98;;;;;;;28.75;51.95;100358.63;5036150;28;20049;-43
2021/06/25 01:00:12;;;;;;;17.23;15.57;;;;;;;28.71;52.07;100357.31;5035539;28;20443;-43
2021/06/25 01:02:38;;;;;;;16.67;15.07;;;;;;;28.68;52.09;100352.31;5034295;28;20054;-43
2021/06/25 01:05:05;;;;;;;17.33;15.13;;;;;;;28.67;52.24;100345.28;5035503;28;20049;-43
2021/06/25 01:07:31;;;;;;;16.90;15.43;;;;;;;28.67;52.08;100347.97;5034269;28;20072;-43
2021/06/25 01:09:57;;;;;;;16.42;15.13;;;;;;;28.64;52.13;100345.63;5035419;28;20100;-43
2021/06/25 01:12:23;;;;;;;16.73;15.50;;;;;;;28.63;52.20;100335.88;5034196;28;20052;-44
2021/06/25 01:14:49;;;;;;;16.83;15.18;;;;;;;28.60;52.25;100338.16;5034014;28;20046;-43
2021/06/25 01:17:31;;;;;;;16.70;14.98;;;;;;;28.58;52.32;100329.41;5034367;28;20057;-43
2021/06/25 01:19:58;;;;;;;17.08;15.43;;;;;;;28.55;52.37;100332.47;5035236;28;20518;-43
2021/06/25 01:22:34;;;;;;;16.38;14.90;;;;;;;28.51;52.49;100326.66;5035080;28;20102;-43
2021/06/25 01:25:03;;;;;;;16.48;14.95;;;;;;;28.47;52.71;100336.09;5033719;28;20075;-43
2021/06/25 01:27:29;;;;;;;17.05;15.25;;;;;;;28.46;52.43;100342.50;5035032;28;20044;-43
2021/06/25 01:29:58;;;;;;;16.73;15.27;;;;;;;28.44;52.73;100345.38;5034899;28;20442;-43
2021/06/25 01:32:23;;;;;;;17.08;15.38;;;;;;;28.45;52.52;100354.28;5034588;28;20414;-43
2021/06/25 01:34:49;;;;;;;17.35;15.52;;;;;;;28.46;52.93;100339.81;5034927;28;20048;-43
2021/06/25 01:37:16;;;;;;;17.35;15.73;;;;;;;28.47;53.01;100352.22;5050173;28;20053;-43
2021/06/25 01:39:42;;;;;;;16.98;15.13;;;;;;;28.48;53.09;100367.34;5034505;28;20041;-44
2021/06/25 01:42:07;;;;;;;17.30;15.63;;;;;;;28.46;53.28;100369.38;5050671;28;20037;-43
2021/06/25 01:44:35;;;;;;;16.70;15.18;;;;;;;28.44;53.14;100361.50;5034788;28;20064;-43
2021/06/25 01:47:01;;;;;;;20.00;16.02;;;;;;;28.43;53.47;100354.47;5034493;28;20045;-44
2021/06/25 01:49:27;;;;;;;19.13;15.73;;;;;;;28.42;53.68;100362.72;5033531;28;20079;-43
2021/06/25 01:51:52;;;;;;;19.08;16.13;;;;;;;28.39;53.74;100355.03;5050356;28;20052;-44
2021/06/25 01:54:18;;;;;;;17.90;16.20;;;;;;;28.36;54.08;100353.56;5034438;28;20041;-43
2021/06/25 01:56:44;;;;;;;28.10;16.70;;;;;;;28.36;54.15;100352.72;5034525;28;20053;-43
2021/06/25 01:59:09;;;;;;;19.77;15.90;;;;;;;28.36;53.82;100358.94;5034434;28;20041;-43
2021/06/25 02:01:35;;;;;;;19.30;16.70;;;;;;;28.40;54.05;100365.56;5034387;28;20382;-43
2021/06/25 02:04:01;;;;;;;25.50;16.15;;;;;;;28.43;54.09;100370.59;5032979;28;20037;-43
2021/06/25 02:06:27;;;;;;;19.27;16.98;;;;;;;28.42;54.24;100362.72;5034324;28;20037;-43
2021/06/25 02:08:53;;;;;;;17.70;15.73;;;;;;;28.42;54.01;100365.41;5034290;28;20049;-43
2021/06/25 02:11:22;;;;;;;27.02;16.73;;;;;;;28.41;54.21;100355.66;5033988;28;20545;-44
2021/06/25 02:13:47;;;;;;;18.27;15.95;;;;;;;28.39;54.22;100361.25;5034203;28;20136;-43
2021/06/25 02:16:13;;;;;;;22.98;15.77;;;;;;;28.42;54.09;100373.47;5032975;28;20045;-43
2021/06/25 02:18:39;;;;;;;20.70;15.90;;;;;;;28.46;54.40;100374.75;5034103;28;20041;-45
2021/06/25 02:21:04;;;;;;;17.65;15.90;;;;;;;28.50;53.94;100389.47;5033912;28;20061;-43
2021/06/25 02:23:30;;;;;;;18.20;15.45;;;;;;;28.50;53.91;100381.41;5033880;28;20048;-45
2021/06/25 02:25:56;;;;;;;21.55;15.90;;;;;;;28.51;54.15;100383.09;5033657;28;20131;-43
2021/06/25 02:28:21;;;;;;;18.77;15.60;;;;;;;28.51;54.27;100382.25;5033964;28;20037;-44
2021/06/25 02:30:47;;;;;;;21.48;16.40;;;;;;;28.50;54.39;100392.16;5033907;28;20052;-43
2021/06/25 02:33:13;;;;;;;18.23;16.08;;;;;;;28.50;54.28;100392.16;5033833;28;20048;-43
2021/06/25 02:35:38;;;;;;;18.75;15.35;;;;;;;28.49;54.35;100377.06;5033777;28;20095;-43
2021/06/25 02:38:04;;;;;;;21.83;15.85;;;;;;;28.49;54.64;100385.13;5033766;28;20077;-43
2021/06/25 02:40:30;;;;;;;22.17;15.52;;;;;;;28.49;54.83;100390.50;5033704;28;20071;-43
2021/06/25 02:42:55;;;;;;;21.13;15.18;;;;;;;28.51;54.78;100383.09;5032658;28;20051;-45
2021/06/25 02:45:21;;;;;;;17.13;14.95;;;;;;;28.54;54.43;100371.94;5033606;28;20094;-44
2021/06/25 02:47:47;;;;;;;20.90;16.35;;;;;;;28.55;54.85;100367.41;5033491;28;20037;-44
2021/06/25 02:50:13;;;;;;;19.73;15.70;;;;;;;28.55;54.89;100372.78;5031471;28;20168;-43
2021/06/25 02:52:40;;;;;;;21.27;16.50;;;;;;;28.56;54.84;100361.03;5024104;28;20049;-43
2021/06/25 02:55:06;;;;;;;20.40;17.15;;;;;;;28.57;54.68;100371.56;5013672;28;20510;-45
2021/06/25 02:57:32;;;;;;;22.67;17.48;;;;;;;28.58;54.90;100367.88;5014396;28;20451;-43
2021/06/25 02:59:58;;;;;;;27.67;17.63;;;;;;;28.59;54.67;100369.56;5033361;28;20103;-43
2021/06/25 03:02:24;;;;;;;19.33;16.42;;;;;;;28.63;54.62;100380.78;5028629;28;20052;-43
2021/06/25 03:04:49;;;;;;;21.77;16.95;;;;;;;28.64;54.80;100367.13;5033261;28;20049;-43
2021/06/25 03:07:15;;;;;;;23.80;16.10;;;;;;;28.66;54.90;100370.50;5033274;28;20095;-43
2021/06/25 03:09:40;;;;;;;19.98;16.33;;;;;;;28.68;55.15;100365.75;5032273;28;20041;-43
2021/06/25 03:12:07;;;;;;;20.58;15.98;;;;;;;28.69;54.98;100370.13;5033453;28;20048;-43
2021/06/25 03:14:33;;;;;;;26.75;16.58;;;;;;;28.72;54.77;100366.22;5033441;28;20041;-43
2021/06/25 03:16:58;;;;;;;25.67;16.30;;;;;;;28.73;54.81;100349.09;5033138;28;20487;-43
2021/06/25 03:19:24;;;;;;;25.10;15.85;;;;;;;28.76;54.77;100359.47;5031565;28;20049;-43
2021/06/25 03:21:49;;;;;;;27.90;15.82;;;;;;;28.78;54.76;100360.94;5032517;28;20107;-43
2021/06/25 03:24:15;;;;;;;25.60;15.77;;;;;;;28.80;54.56;100366.09;5026204;28;20455;-43
2021/06/25 03:26:41;;;;;;;17.85;15.90;;;;;;;28.83;54.63;100361.19;5013202;28;20042;-43
2021/06/25 03:29:07;;;;;;;23.15;15.85;;;;;;;28.83;54.75;100358.50;5013194;28;20095;-43
2021/06/25 03:31:32;;;;;;;26.48;15.98;;;;;;;28.83;55.06;100354.97;5013176;28;20511;-43
2021/06/25 03:33:58;;;;;;;22.33;15.82;;;;;;;28.87;55.04;100350.88;5013145;28;20042;-43
2021/06/25 03:36:24;;;;;;;19.90;15.70;;;;;;;28.92;55.03;100353.84;5013142;28;20046;-44
2021/06/25 03:38:50;;;;;;;27.17;15.80;;;;;;;28.94;54.96;100355.31;5013097;28;20052;-43
2021/06/25 03:41:15;;;;;;;17.55;14.75;;;;;;;28.98;55.14;100353.09;5013151;28;20045;-44
2021/06/25 03:43:42;;;;;;;20.15;16.55;;;;;;;29.03;54.94;100349.81;5013126;28;20050;-45
2021/06/25 03:46:08;;;;;;;28.80;16.25;;;;;;;29.07;54.95;100356.47;5013104;28;20045;-43
2021/06/25 03:48:34;;;;;;;22.48;15.38;;;;;;;29.11;54.53;100341.63;5028894;28;20042;-43
2021/06/25 03:51:00;;;;;;;18.25;15.23;;;;;;;29.19;54.50;100344.19;5013092;28;20048;-43
2021/06/25 03:53:25;;;;;;;17.40;14.40;;;;;;;29.22;54.05;100339.25;5013490;28;20042;-45
2021/06/25 03:56:12;;;;;;;20.88;15.05;;;;;;;29.23;54.11;100340.06;5031990;28;20049;-45
2021/06/25 03:58:38;;;;;;;16.95;14.95;;;;;;;29.20;54.17;100327.00;5016964;28;20046;-45
2021/06/25 04:01:04;;;;;;;21.70;15.35;;;;;;;29.26;54.18;100334.34;5017205;28;20046;-45
2021/06/25 04:03:30;;;;;;;20.15;14.88;;;;;;;29.27;54.19;100330.63;5016818;28;20487;-45
2021/06/25 04:05:55;;;;;;;24.42;15.30;;;;;;;29.29;54.22;100332.09;5017088;28;20489;-45
2021/06/25 04:08:24;;;;;;;22.25;15.38;;;;;;;29.37;54.09;100336.53;5018873;28;20104;-45
2021/06/25 04:10:50;;;;;;;19.60;15.38;;;;;;;29.40;53.91;100336.13;5033666;28;20120;-45
2021/06/25 04:13:15;;;;;;;20.67;15.55;;;;;;;29.45;53.81;100329.13;5036269;28;20029;-45
2021/06/25 04:15:41;;;;;;;18.58;15.38;;;;;;;29.50;53.43;100335.78;5036050;28;20095;-45
2021/06/25 04:18:07;;;;;;;23.50;14.48;;;;;;;29.55;53.09;100336.06;5036108;28;20044;-45
2021/06/25 04:20:32;;;;;;;17.83;14.55;;;;;;;29.62;52.36;100335.06;5036332;28;20586;-46
2021/06/25 04:22:58;;;;;;;17.63;13.35;;;;;;;29.70;52.17;100347.56;5036485;28;20045;-45
2021/06/25 04:25:24;;;;;;;22.77;13.65;;;;;;;29.75;51.77;100354.00;5036277;28;20041;-48
2021/06/25 04:27:50;;;;;;;14.05;12.18;;;;;;;29.80;51.58;100348.88;5036629;28;20060;-44
2021/06/25 04:30:16;;;;;;;18.90;11.05;;;;;;;29.85;50.51;100346.47;5035867;28;20069;-45
2021/06/25 04:32:42;;;;;;;28.52;11.52;;;;;;;29.88;49.93;100345.22;5035869;28;20098;-47
2021/06/25 04:35:08;;;;;;;18.52;11.65;;;;;;;29.91;49.93;100351.06;5035771;28;20522;-45
2021/06/25 04:37:34;;;;;;;12.57;11.27;;;;;;;29.92;49.38;100347.34;5034896;28;20065;-45
2021/06/25 04:40:00;;;;;;;16.48;11.57;;;;;;;29.91;49.14;100347.53;5034857;28;20045;-45
2021/06/25 04:42:26;;;;;;;12.43;11.00;;;;;;;29.93;49.08;100348.19;5034974;28;20048;-45
2021/06/25 04:44:51;;;;;;;14.82;11.90;;;;;;;29.94;49.22;100347.97;5034482;28;20045;-45
2021/06/25 04:47:17;;;;;;;12.90;11.60;;;;;;;29.95;49.40;100344.25;5035855;28;20048;-45
2021/06/25 04:49:43;;;;;;;13.40;11.30;;;;;;;29.98;49.27;100343.84;5035812;28;20033;-45
2021/06/25 04:52:09;;;;;;;17.80;11.60;;;;;;;30.00;49.36;100340.13;5035791;28;20588;-47
2021/06/25 04:54:35;;;;;;;15.18;11.15;;;;;;;30.01;49.07;100347.19;5035682;28;20041;-45
2021/06/25 04:57:00;;;;;;;13.02;11.73;;;;;;;30.01;49.04;100341.81;5035671;28;20045;-45
2021/06/25 04:59:29;;;;;;;16.70;10.98;;;;;;;30.02;48.97;100340.75;5035896;28;20099;-45
2021/06/25 05:01:54;;;;;;;17.83;11.15;;;;;;;30.02;49.16;100340.75;5035669;28;20054;-45
2021/06/25 05:04:20;;;;;;;11.93;10.80;;;;;;;30.02;49.29;100340.75;5034099;28;20068;-45
2021/06/25 05:06:47;;;;;;;18.20;11.30;;;;;;;30.06;49.17;100342.03;5033447;28;20128;-45
2021/06/25 05:09:13;;;;;;;20.83;11.27;;;;;;;30.07;49.31;100341.03;5035077;28;20491;-45
2021/06/25 05:11:39;;;;;;;13.43;10.23;;;;;;;30.08;49.28;100342.66;5035872;28;20053;-44
2021/06/25 05:14:05;;;;;;;14.85;10.73;;;;;;;30.11;49.29;100336.88;5035655;28;20398;-45
2021/06/25 05:16:30;;;;;;;14.57;10.55;;;;;;;30.12;49.28;100333.16;5035295;28;20041;-44
2021/06/25 05:18:56;;;;;;;22.38;11.10;;;;;;;30.16;49.27;100340.66;5029145;28;20057;-45
2021/06/25 05:21:22;;;;;;;16.85;10.70;;;;;;;30.22;49.39;100349.78;5033913;28;20100;-45
2021/06/25 05:23:48;;;;;;;10.52;9.63;;;;;;;30.29;49.36;100345.28;5032579;28;20119;-46
2021/06/25 05:26:13;;;;;;;15.68;10.27;;;;;;;30.34;48.95;100340.09;5032149;28;20041;-49
2021/06/25 05:28:39;;;;;;;18.00;10.32;;;;;;;30.38;48.99;100338.69;5030429;28;20414;-45
2021/06/25 05:31:04;;;;;;;18.05;10.35;;;;;;;30.43;48.96;100347.03;5034198;28;20525;-43
2021/06/25 05:33:30;;;;;;;22.50;10.23;;;;;;;30.50;48.89;100334.41;5028565;28;20053;-49
2021/06/25 05:35:56;;;;;;;19.27;10.35;;;;;;;30.55;48.71;100348.13;5020388;28;20052;-46
2021/06/25 05:38:21;;;;;;;17.75;10.48;;;;;;;30.59;48.50;100346.69;5032009;28;20049;-48
2021/06/25 05:40:47;;;;;;;13.48;10.60;;;;;;;30.61;48.58;100341.94;5021544;28;20044;-48
2021/06/25 05:43:13;;;;;;;17.52;10.90;;;;;;;30.63;48.66;100339.84;5031311;28;20530;-45
2021/06/25 05:45:39;;;;;;;12.35;11.07;;;;;;;30.64;48.60;100336.13;5033599;28;20037;-49
2021/06/25 05:48:05;;;;;;;12.15;10.98;;;;;;;30.66;48.99;100341.34;5033677;28;20049;-48
2021/06/25 05:50:31;;;;;;;14.50;10.93;;;;;;;30.69;49.05;100338.22;5033331;28;20048;-45
2021/06/25 05:52:56;;;;;;;17.08;12.10;;;;;;;30.70;49.15;100340.72;5033723;28;20128;-53
2021/06/25 05:55:22;;;;;;;16.02;12.73;;;;;;;30.72;49.56;100349.44;5033565;28;20045;-45
2021/06/25 05:57:48;;;;;;;18.98;12.57;;;;;;;30.74;49.50;100341.97;5033190;28;20045;-46
2021/06/25 06:00:14;;;;;;;27.10;12.18;;;;;;;30.76;49.49;100339.91;5033135;28;20052;-45
2021/06/25 06:02:40;;;;;;;17.95;13.07;;;;;;;30.80;49.46;100343.00;5033381;28;20406;-47
2021/06/25 06:05:06;;;;;;;21.10;12.18;;;;;;;30.72;49.31;100321.66;5033308;28;20107;-48
2021/06/25 06:07:32;;;;;;;18.55;10.65;;;;;;;30.84;49.12;100345.13;5032977;28;20029;-45
2021/06/25 06:09:58;;;;;;;19.48;11.18;;;;;;;30.88;48.88;100349.09;5033193;28;20049;-50
2021/06/25 06:12:23;;;;;;;14.88;11.00;;;;;;;30.89;48.84;100348.03;5033238;28;20525;-44
2021/06/25 06:14:49;;;;;;;21.05;11.30;;;;;;;30.91;48.68;100354.06;5033267;28;20403;-45
2021/06/25 06:17:18;;;;;;;12.02;10.38;;;;;;;30.93;48.78;100348.44;5032957;28;20041;-44
2021/06/25 06:19:44;;;;;;;21.38;11.15;;;;;;;30.98;48.92;100354.94;5032737;28;20041;-46
2021/06/25 06:33:16;;;;;;;24.90;11.95;;;;;;;31.15;49.45;100362.66;5032713;28;20091;-47
2021/06/25 06:35:42;;;;;;;36.63;12.70;;;;;;;31.17;49.38;100365.97;5032463;28;20044;-48
2021/06/25 06:38:08;;;;;;;25.05;11.98;;;;;;;31.19;49.73;100366.59;5029460;28;20049;-44
2021/06/25 06:40:34;;;;;;;21.85;11.63;;;;;;;31.22;49.38;100371.56;5028838;28;20034;-44
2021/06/25 06:43:00;;;;;;;18.85;10.40;;;;;;;31.23;48.89;100365.16;5013136;28;20041;-45
2021/06/25 06:45:25;;;;;;;19.48;10.40;;;;;;;31.26;48.88;100364.72;5013109;28;20033;-47
2021/06/25 06:47:51;;;;;;;19.60;10.68;;;;;;;31.29;49.14;100373.25;5013014;28;20459;-46
2021/06/25 06:50:17;;;;;;;14.23;10.20;;;;;;;31.30;49.31;100369.53;5018454;28;20036;-55
2021/06/25 06:52:44;;;;;;;12.07;10.68;;;;;;;31.31;49.39;100376.59;5023160;28;20384;-51
2021/06/25 06:55:11;;;;;;;17.23;10.35;;;;;;;31.31;49.35;100375.75;5025959;28;20037;-54
2021/06/25 06:57:38;;;;;;;16.77;11.07;;;;;;;31.31;49.67;100381.16;5030139;28;20069;-49
2021/06/25 07:00:05;;;;;;;15.10;10.50;;;;;;;31.34;49.04;100384.28;5029662;28;20129;-54
2021/06/25 07:02:31;;;;;;;15.60;10.40;;;;;;;31.39;48.84;100375.56;5032505;28;20068;-47
2021/06/25 07:04:56;;;;;;;15.63;10.02;;;;;;;31.44;48.61;100381.19;5022591;28;20492;-53
2021/06/25 07:07:22;;;;;;;10.80;9.80;;;;;;;31.49;48.36;100386.78;5012585;28;20041;-46
2021/06/25 07:09:47;;;;;;;9.77;8.75;;;;;;;31.52;47.78;100385.56;5012624;28;20038;-49
2021/06/25 07:12:13;;;;;;;13.70;8.63;;;;;;;31.55;47.28;100387.84;5013051;28;20430;-48
2021/06/25 07:14:39;;;;;;;10.32;8.70;;;;;;;31.57;47.57;100383.91;5030955;28;20535;-47
2021/06/25 07:17:04;;;;;;;9.65;8.95;;;;;;;31.55;47.47;100383.28;5032416;28;20045;-47
2021/06/25 07:19:30;;;;;;;11.15;9.95;;;;;;;31.57;48.08;100383.91;5032144;28;20095;-46
2021/06/25 07:21:56;;;;;;;15.30;10.02;;;;;;;31.59;47.84;100378.28;5032184;28;20049;-45
2021/06/25 07:24:21;;;;;;;19.15;9.88;;;;;;;31.62;47.77;100378.72;5031585;28;20465;-47
2021/06/25 07:26:47;;;;;;;20.85;13.25;;;;;;;31.62;47.70;100391.38;5030751;28;20048;-47
2021/06/25 07:29:14;;;;;;;17.38;13.32;;;;;;;31.61;47.25;100377.03;5030082;28;20038;-47
